Time;durP1;ratioP1;P1;durP2;ratioP2;P2;SDS_P1;SDS_P2;PMS_P1;PMS_P2;Temp;Humidity;BMP_temperature;BMP_pressure;BME280_temperature;BME280_humidity;BME280_pressure;Samples;Min_cycle;Max_cycle;Signal;HPM_P1;HPM_P2
2022/11/22 00:00:12;;;;;;;59.40;24.60;;;;;;;0.69;90.90;99228.14;103346;1282;22481;-56
2022/11/22 00:03:03;;;;;;;66.20;25.50;;;;;;;0.70;90.92;99235.02;103004;1306;22460;-61
2022/11/22 00:05:35;;;;;;;58.80;25.80;;;;;;;0.68;90.77;99236.10;103202;1282;22688;-59
2022/11/22 00:08:07;;;;;;;64.60;24.50;;;;;;;0.69;90.91;99238.97;103168;1282;22485;-60
2022/11/22 00:10:40;;;;;;;68.00;25.20;;;;;;;0.70;90.93;99234.14;103153;1282;22598;-60
2022/11/22 00:13:11;;;;;;;59.50;23.30;;;;;;;0.71;91.02;99228.48;103155;1274;22587;-61
2022/11/22 00:15:43;;;;;;;62.00;25.80;;;;;;;0.73;90.97;99225.03;103303;1281;25404;-59
2022/11/22 00:18:16;;;;;;;57.30;24.70;;;;;;;0.72;90.93;99230.08;103222;1281;22583;-60
2022/11/22 00:20:48;;;;;;;54.50;24.10;;;;;;;0.73;91.03;99223.41;103303;1282;22468;-59
2022/11/22 00:23:19;;;;;;;52.30;22.30;;;;;;;0.71;90.99;99220.86;103271;1306;25041;-60
2022/11/22 00:25:51;;;;;;;52.30;21.70;;;;;;;0.71;91.07;99218.04;103157;1306;22596;-60
2022/11/22 00:28:23;;;;;;;48.10;19.90;;;;;;;0.72;91.10;99210.08;103248;1285;25446;-61
2022/11/22 00:30:55;;;;;;;47.80;20.30;;;;;;;0.73;91.20;99204.71;103232;1306;22522;-61
2022/11/22 00:33:27;;;;;;;50.90;20.50;;;;;;;0.75;91.14;99206.40;103275;1281;22555;-59
2022/11/22 00:35:58;;;;;;;48.30;19.20;;;;;;;0.74;91.14;99203.42;103243;1282;22595;-59
2022/11/22 00:38:30;;;;;;;47.00;19.30;;;;;;;0.76;91.11;99204.80;103074;1306;23956;-59
2022/11/22 00:41:01;;;;;;;48.50;19.40;;;;;;;0.75;91.15;99202.69;103197;1281;24888;-58
2022/11/22 00:43:33;;;;;;;46.50;18.20;;;;;;;0.75;91.18;99197.98;103275;1281;22561;-60
2022/11/22 00:46:04;;;;;;;51.40;20.20;;;;;;;0.76;91.15;99197.55;103183;1306;22472;-59
2022/11/22 00:48:37;;;;;;;44.90;17.60;;;;;;;0.78;91.24;99191.52;103175;1285;22478;-58
2022/11/22 00:51:08;;;;;;;51.20;20.20;;;;;;;0.77;91.24;99184.27;103177;1305;24434;-59
2022/11/22 00:53:40;;;;;;;40.90;17.80;;;;;;;0.78;91.34;99185.32;103151;1279;22466;-60
2022/11/22 00:56:11;;;;;;;41.00;16.80;;;;;;;0.75;91.19;99182.27;103160;1282;25550;-61
2022/11/22 00:58:42;;;;;;;43.30;16.80;;;;;;;0.72;91.15;99185.27;103210;1306;22466;-60
2022/11/22 01:01:16;;;;;;;41.10;16.30;;;;;;;0.70;91.24;99184.55;103193;1284;25243;-59
2022/11/22 01:03:48;;;;;;;41.20;16.60;;;;;;;0.70;91.34;99185.64;103201;1300;22460;-59
2022/11/22 01:06:19;;;;;;;37.80;15.30;;;;;;;0.68;91.44;99179.81;103190;1281;22469;-61
2022/11/22 01:08:51;;;;;;;40.70;17.20;;;;;;;0.65;91.32;99183.22;103383;1292;22470;-59
2022/11/22 01:11:22;;;;;;;42.00;17.60;;;;;;;0.65;91.61;99177.88;103261;1299;25455;-58
2022/11/22 01:13:54;;;;;;;39.00;16.80;;;;;;;0.66;91.60;99171.40;103220;1281;22486;-60
2022/11/22 01:16:26;;;;;;;39.90;15.50;;;;;;;0.65;91.49;99172.16;103168;1274;22475;-61
2022/11/22 01:18:57;;;;;;;37.90;14.80;;;;;;;0.62;91.54;99178.03;103190;1306;22476;-62
2022/11/22 01:21:29;;;;;;;39.00;15.50;;;;;;;0.61;91.53;99179.55;103352;1282;22472;-59
2022/11/22 01:24:00;;;;;;;42.20;16.30;;;;;;;0.59;91.61;99186.45;103110;1284;23954;-62
2022/11/22 01:26:32;;;;;;;39.10;13.50;;;;;;;0.59;91.62;99190.32;103218;1306;22484;-60
2022/11/22 01:29:04;;;;;;;41.30;15.10;;;;;;;0.58;91.57;99186.73;103155;1292;24334;-61
2022/11/22 01:31:36;;;;;;;37.70;14.60;;;;;;;0.54;91.45;99179.86;103113;1306;22466;-59
2022/11/22 01:34:08;;;;;;;35.40;13.70;;;;;;;0.50;91.46;99184.27;103199;1274;22466;-61
2022/11/22 01:36:40;;;;;;;39.40;15.00;;;;;;;0.47;91.62;99178.25;103161;1306;22482;-61
2022/11/22 01:39:11;;;;;;;47.40;18.20;;;;;;;0.45;91.71;99179.73;103249;1282;25374;-67
2022/11/22 01:41:42;;;;;;;46.50;18.70;;;;;;;0.46;91.83;99183.54;103150;1280;22468;-60
2022/11/22 01:44:23;;;;;;;47.80;19.00;;;;;;;0.46;91.78;99184.70;103142;1281;22467;-62
2022/11/22 01:46:57;;;;;;;57.70;23.00;;;;;;;0.48;91.88;99191.25;103066;1292;23364;-61
2022/11/22 01:49:35;;;;;;;54.00;20.60;;;;;;;0.47;91.62;99183.83;103091;1281;22471;-60
2022/11/22 01:52:10;;;;;;;55.30;22.70;;;;;;;0.45;91.74;99173.30;103172;1306;22468;-61
2022/11/22 01:54:45;;;;;;;52.20;20.70;;;;;;;0.45;91.88;99170.87;103171;1275;22720;-61
2022/11/22 01:57:22;;;;;;;60.30;23.10;;;;;;;0.46;91.79;99161.18;103192;1298;22962;-61
2022/11/22 01:59:58;;;;;;;56.80;22.90;;;;;;;0.43;91.74;99151.79;103238;1282;23912;-60
2022/11/22 02:02:30;;;;;;;56.20;23.00;;;;;;;0.42;91.83;99149.48;103162;1282;22536;-63
2022/11/22 02:05:06;;;;;;;55.50;20.60;;;;;;;0.41;91.90;99145.80;103256;1284;22477;-61
2022/11/22 02:07:44;;;;;;;51.70;21.40;;;;;;;0.41;91.91;99150.51;103352;1275;22467;-57
2022/11/22 02:10:17;;;;;;;58.00;23.60;;;;;;;0.41;92.00;99151.38;103119;1306;22457;-60
2022/11/22 02:12:51;;;;;;;57.50;23.10;;;;;;;0.42;92.08;99151.34;103138;1282;22472;-60
2022/11/22 02:15:22;;;;;;;58.50;20.50;;;;;;;0.46;92.22;99147.77;103097;1306;23922;-60
2022/11/22 02:17:56;;;;;;;54.80;21.60;;;;;;;0.50;92.28;99149.98;103179;1275;25442;-61
2022/11/22 02:20:28;;;;;;;57.30;21.80;;;;;;;0.52;91.98;99150.42;103243;1282;23432;-59
2022/11/22 02:23:06;;;;;;;63.30;22.10;;;;;;;0.52;91.93;99147.29;103185;1306;25338;-57
2022/11/22 02:25:47;;;;;;;50.40;19.80;;;;;;;0.52;91.92;99146.16;103053;1306;22480;-58
2022/11/22 02:28:18;;;;;;;60.90;22.40;;;;;;;0.51;91.93;99150.76;103180;1287;22476;-61
2022/11/22 02:30:50;;;;;;;58.80;24.30;;;;;;;0.48;91.80;99155.94;103227;1298;24297;-60
2022/11/22 02:33:21;;;;;;;63.20;23.80;;;;;;;0.48;91.99;99147.54;103202;1282;22605;-63
2022/11/22 02:35:53;;;;;;;51.20;18.30;;;;;;;0.49;91.99;99138.59;103205;1282;22520;-60
2022/11/22 02:38:26;;;;;;;57.90;20.00;;;;;;;0.51;92.26;99141.36;103241;1305;22479;-63
2022/11/22 02:41:00;;;;;;;54.90;20.70;;;;;;;0.52;92.17;99134.63;103131;1282;23636;-61
2022/11/22 02:43:33;;;;;;;45.30;16.50;;;;;;;0.52;92.27;99124.85;103156;1282;24183;-62
2022/11/22 02:46:10;;;;;;;49.10;18.70;;;;;;;0.53;92.43;99122.14;103226;1303;22476;-61
2022/11/22 02:48:44;;;;;;;51.70;18.50;;;;;;;0.54;92.54;99117.63;103289;1306;22571;-60
2022/11/22 02:51:18;;;;;;;47.30;17.10;;;;;;;0.53;92.51;99109.65;103116;1274;22410;-58
2022/11/22 02:53:52;;;;;;;48.50;17.70;;;;;;;0.52;92.54;99105.86;103292;1282;25378;-62
2022/11/22 02:56:24;;;;;;;45.60;16.60;;;;;;;0.50;92.65;99096.48;103418;1274;22676;-60
2022/11/22 02:58:55;;;;;;;50.00;15.90;;;;;;;0.50;92.64;99091.78;103287;1281;22493;-57
2022/11/22 03:01:27;;;;;;;48.50;18.00;;;;;;;0.49;92.78;99091.27;103306;1282;22611;-62
2022/11/22 03:03:58;;;;;;;49.70;16.20;;;;;;;0.48;92.77;99088.39;103173;1305;24269;-62
2022/11/22 03:06:30;;;;;;;45.30;16.20;;;;;;;0.46;92.73;99085.88;103206;1281;22464;-60
2022/11/22 03:09:01;;;;;;;45.30;17.20;;;;;;;0.45;92.80;99082.85;103230;1287;25441;-58
2022/11/22 03:11:34;;;;;;;45.10;16.20;;;;;;;0.46;92.93;99083.38;103067;1296;23446;-59
2022/11/22 03:14:05;;;;;;;50.60;18.30;;;;;;;0.45;92.83;99090.23;103350;1281;25364;-60
2022/11/22 03:16:37;;;;;;;53.10;20.00;;;;;;;0.41;92.90;99099.98;103226;1299;22460;-61
2022/11/22 03:19:08;;;;;;;58.50;18.80;;;;;;;0.40;92.91;99112.51;103125;1281;22466;-60
2022/11/22 03:21:40;;;;;;;59.40;20.30;;;;;;;0.39;93.07;99119.50;103050;1275;25314;-60
2022/11/22 03:24:12;;;;;;;51.40;18.80;;;;;;;0.37;92.99;99106.16;103203;1281;25398;-59
2022/11/22 03:26:46;;;;;;;57.30;20.40;;;;;;;0.38;93.22;99100.15;103287;1275;25245;-59
2022/11/22 03:29:18;;;;;;;52.30;19.40;;;;;;;0.39;93.18;99101.38;103247;1281;22472;-58
2022/11/22 03:31:49;;;;;;;48.30;17.30;;;;;;;0.39;93.20;99106.17;103320;1282;22477;-62
2022/11/22 03:34:20;;;;;;;58.50;20.80;;;;;;;0.36;93.20;99110.56;103248;1284;22489;-60
2022/11/22 03:36:52;;;;;;;51.30;18.10;;;;;;;0.34;93.21;99116.17;103190;1282;25239;-59
2022/11/22 03:39:23;;;;;;;54.70;21.20;;;;;;;0.34;93.34;99120.29;103146;1299;25587;-62
2022/11/22 03:41:55;;;;;;;56.60;20.90;;;;;;;0.34;93.43;99124.13;103154;1281;22462;-59
2022/11/22 03:44:26;;;;;;;56.90;22.60;;;;;;;0.32;93.42;99118.68;103165;1282;25553;-61
2022/11/22 03:46:57;;;;;;;61.50;21.40;;;;;;;0.33;93.50;99115.00;103216;1283;26622;-59
2022/11/22 03:49:29;;;;;;;56.30;21.10;;;;;;;0.32;93.57;99110.38;103063;1281;22515;-59
2022/11/22 03:52:00;;;;;;;54.40;20.30;;;;;;;0.34;93.65;99108.05;103267;1298;24411;-61
2022/11/22 03:54:32;;;;;;;47.90;17.00;;;;;;;0.34;93.61;99103.27;103382;1281;24477;-59
2022/11/22 03:57:04;;;;;;;48.40;17.70;;;;;;;0.31;93.59;99103.57;103402;1281;22496;-60
2022/11/22 03:59:35;;;;;;;52.20;19.90;;;;;;;0.29;93.68;99102.38;103165;1306;22485;-57
2022/11/22 04:02:07;;;;;;;50.20;19.20;;;;;;;0.29;93.65;99101.61;103209;1282;24414;-60
2022/11/22 04:04:38;;;;;;;50.80;18.50;;;;;;;0.28;93.72;99098.27;103185;1306;22473;-58
2022/11/22 04:07:10;;;;;;;55.30;20.30;;;;;;;0.31;93.87;99096.83;103140;1282;23087;-61
2022/11/22 04:09:41;;;;;;;53.30;18.70;;;;;;;0.32;93.74;99096.73;103381;1284;25346;-59
2022/11/22 04:12:13;;;;;;;55.40;19.20;;;;;;;0.31;93.80;99094.27;103182;1282;22465;-60
2022/11/22 04:17:43;;;;;;;55.60;19.20;;;;;;;0.31;94.00;99100.06;103058;1275;22691;-59
2022/11/22 04:23:08;;;;;;;54.90;19.90;;;;;;;0.32;94.07;99083.71;103064;1281;22932;-60
2022/11/22 04:25:41;;;;;;;56.30;19.50;;;;;;;0.34;94.09;99081.69;103134;1307;25532;-59
2022/11/22 04:28:14;;;;;;;60.60;20.50;;;;;;;0.37;94.15;99087.89;103158;1282;23072;-62
2022/11/22 04:33:35;;;;;;;48.40;18.70;;;;;;;0.38;94.21;99074.35;103042;1299;27844;-60
2022/11/22 04:36:09;;;;;;;56.90;20.20;;;;;;;0.39;94.34;99068.91;103096;1292;22510;-58
2022/11/22 04:38:40;;;;;;;48.60;17.80;;;;;;;0.40;94.33;99065.81;103104;1275;22476;-60
2022/11/22 04:41:12;;;;;;;56.60;19.20;;;;;;;0.40;94.39;99064.16;103057;1283;22477;-59
2022/11/22 04:46:34;;;;;;;61.20;21.80;;;;;;;0.41;94.53;99061.15;103076;1282;22479;-59
2022/11/22 04:49:05;;;;;;;57.80;19.80;;;;;;;0.42;94.65;99061.46;103333;1306;22485;-61
2022/11/22 04:54:29;;;;;;;48.10;16.10;;;;;;;0.47;94.81;99062.45;102668;1304;22487;-58
2022/11/22 04:57:00;;;;;;;55.40;19.50;;;;;;;0.47;94.77;99063.33;102730;1309;23889;-58
2022/11/22 04:59:32;;;;;;;57.00;20.20;;;;;;;0.48;94.75;99067.45;102891;1288;26369;-59
2022/11/22 05:02:03;;;;;;;62.80;22.20;;;;;;;0.49;94.87;99068.38;102917;1301;22763;-56
2022/11/22 05:04:37;;;;;;;59.50;21.50;;;;;;;0.51;94.85;99064.99;102852;1304;22481;-59
2022/11/22 05:07:08;;;;;;;65.70;19.80;;;;;;;0.53;94.97;99064.86;102829;1287;22474;-59
2022/11/22 05:09:39;;;;;;;61.70;21.90;;;;;;;0.55;94.94;99065.04;102778;1287;25125;-58
2022/11/22 05:12:10;;;;;;;62.00;20.70;;;;;;;0.56;94.94;99062.09;102768;1285;25337;-59
2022/11/22 05:14:42;;;;;;;57.30;20.10;;;;;;;0.57;95.10;99059.64;102834;1288;25573;-61
2022/11/22 05:17:13;;;;;;;64.90;21.10;;;;;;;0.57;95.03;99060.10;102743;1280;24242;-58
2022/11/22 05:19:44;;;;;;;61.80;21.80;;;;;;;0.57;95.15;99056.89;102750;1303;22494;-59
2022/11/22 05:22:15;;;;;;;57.40;21.60;;;;;;;0.59;95.27;99065.39;102758;1287;24892;-58
2022/11/22 05:24:47;;;;;;;55.20;19.40;;;;;;;0.62;95.26;99068.74;102840;1304;23081;-59
2022/11/22 05:27:18;;;;;;;62.50;23.00;;;;;;;0.63;95.17;99059.28;102782;1312;22472;-57
2022/11/22 05:29:50;;;;;;;52.80;18.70;;;;;;;0.65;95.33;99061.83;102707;1287;22482;-60
2022/11/22 05:32:28;;;;;;;44.60;16.30;;;;;;;0.63;95.18;99064.77;102972;1306;23879;-59
2022/11/22 05:35:00;;;;;;;48.50;16.20;;;;;;;0.60;95.14;99075.17;103195;1282;22607;-58
2022/11/22 05:37:31;;;;;;;43.80;16.10;;;;;;;0.58;95.22;99082.52;103241;1285;22469;-61
2022/11/22 05:40:03;;;;;;;47.00;16.70;;;;;;;0.57;95.39;99083.50;103117;1307;26564;-57
2022/11/22 05:42:34;;;;;;;48.20;17.50;;;;;;;0.59;95.40;99083.91;103119;1306;22483;-62
2022/11/22 05:45:07;;;;;;;55.20;17.80;;;;;;;0.60;95.48;99089.52;107129;1280;22237;-61
2022/11/22 05:47:38;;;;;;;48.50;18.00;;;;;;;0.64;95.53;99092.85;103972;1305;22986;-58
2022/11/22 05:50:11;;;;;;;52.60;19.60;;;;;;;0.65;95.50;99086.13;103017;1306;22475;-58
2022/11/22 05:52:42;;;;;;;59.10;19.30;;;;;;;0.68;95.49;99084.96;103090;1288;24299;-60
2022/11/22 05:55:14;;;;;;;58.20;19.50;;;;;;;0.69;95.48;99090.88;103049;1282;22459;-58
2022/11/22 05:57:45;;;;;;;50.70;21.00;;;;;;;0.72;95.63;99090.32;103162;1282;24244;-56
2022/11/22 06:00:18;;;;;;;54.90;20.10;;;;;;;0.73;95.52;99093.33;103051;1281;22577;-59
2022/11/22 06:02:50;;;;;;;54.90;21.10;;;;;;;0.74;95.58;99094.66;103044;1285;25650;-53
2022/11/22 06:05:21;;;;;;;55.50;20.70;;;;;;;0.74;95.58;99088.43;103006;1284;25395;-56
2022/11/22 06:07:53;;;;;;;51.90;18.70;;;;;;;0.76;95.61;99085.01;103132;1282;22542;-55
2022/11/22 06:10:25;;;;;;;56.20;20.60;;;;;;;0.79;95.64;99091.27;103058;1284;22483;-53
2022/11/22 06:12:57;;;;;;;60.40;19.10;;;;;;;0.80;95.64;99101.52;103142;1297;22467;-55
2022/11/22 06:15:30;;;;;;;53.90;18.80;;;;;;;0.81;95.75;99104.22;103240;1281;22492;-55
2022/11/22 06:18:02;;;;;;;49.80;18.20;;;;;;;0.82;95.79;99103.51;103238;1306;24283;-56
2022/11/22 06:20:33;;;;;;;50.70;18.70;;;;;;;0.83;95.78;99105.81;103256;1295;22600;-54
2022/11/22 06:23:05;;;;;;;47.20;17.00;;;;;;;0.82;95.71;99108.60;103157;1287;22486;-56
2022/11/22 06:25:36;;;;;;;52.70;18.40;;;;;;;0.80;95.74;99108.25;103229;1288;22457;-54
2022/11/22 06:28:08;;;;;;;51.70;18.50;;;;;;;0.82;95.82;99106.71;103303;1303;23092;-58
2022/11/22 06:30:39;;;;;;;52.30;17.60;;;;;;;0.86;95.99;99104.02;103149;1292;25474;-54
2022/11/22 06:33:11;;;;;;;50.80;18.30;;;;;;;0.88;95.98;99105.20;103202;1281;25421;-53
2022/11/22 06:35:44;;;;;;;50.40;19.00;;;;;;;0.89;95.94;99102.17;103151;1281;26274;-58
2022/11/22 06:38:15;;;;;;;55.30;18.40;;;;;;;0.91;95.99;99104.89;103220;1288;25197;-63
2022/11/22 06:40:46;;;;;;;53.50;19.10;;;;;;;0.92;96.00;99104.21;103162;1281;22468;-54
2022/11/22 06:43:18;;;;;;;52.80;19.00;;;;;;;0.92;95.93;99104.05;103001;1282;24321;-54
2022/11/22 06:45:50;;;;;;;46.90;17.50;;;;;;;0.94;96.02;99109.33;103225;1307;25646;-55
2022/11/22 06:48:22;;;;;;;72.50;25.90;;;;;;;0.94;95.98;99118.10;103093;1281;22703;-56
2022/11/22 06:50:58;;;;;;;86.20;27.80;;;;;;;0.96;96.13;99123.30;103097;1308;22518;-53
2022/11/22 06:53:31;;;;;;;112.80;36.50;;;;;;;0.98;96.27;99128.83;103218;1300;25509;-56
2022/11/22 06:56:05;;;;;;;80.00;28.30;;;;;;;0.97;96.08;99133.65;103124;1284;22895;-56
2022/11/22 06:58:37;;;;;;;57.60;19.60;;;;;;;0.96;96.23;99142.38;103145;1294;26476;-57
2022/11/22 07:01:11;;;;;;;63.70;21.80;;;;;;;0.97;96.28;99143.47;103119;1280;24676;-54
2022/11/22 07:03:45;;;;;;;52.20;17.60;;;;;;;0.97;96.39;99139.52;103091;1282;25309;-53
2022/11/22 07:06:17;;;;;;;52.90;18.90;;;;;;;0.99;96.55;99134.45;103045;1281;24535;-56
2022/11/22 07:08:49;;;;;;;56.80;21.30;;;;;;;0.99;96.49;99144.16;103043;1281;22941;-55
2022/11/22 07:11:22;;;;;;;56.00;20.80;;;;;;;1.00;96.60;99153.73;102943;1295;22527;-53
2022/11/22 07:13:55;;;;;;;51.10;20.30;;;;;;;1.00;96.63;99166.23;103031;1281;24099;-55
2022/11/22 07:16:27;;;;;;;54.00;20.90;;;;;;;0.98;96.72;99164.08;103089;1281;22497;-55
2022/11/22 07:19:00;;;;;;;64.30;23.90;;;;;;;1.00;96.88;99155.38;103099;1307;24312;-53
2022/11/22 07:21:32;;;;;;;58.40;21.60;;;;;;;1.02;96.93;99145.19;103129;1290;22589;-55
2022/11/22 07:24:05;;;;;;;60.20;20.80;;;;;;;1.04;97.07;99142.15;103411;1284;22483;-54
2022/11/22 07:26:37;;;;;;;59.30;22.10;;;;;;;1.05;97.02;99131.73;103069;1288;22589;-56
2022/11/22 07:29:09;;;;;;;55.50;20.00;;;;;;;1.08;97.00;99133.45;103189;1288;22535;-54
2022/11/22 07:31:41;;;;;;;61.70;22.80;;;;;;;1.10;97.06;99136.14;103145;1294;22640;-56
2022/11/22 07:34:13;;;;;;;65.40;23.70;;;;;;;1.12;97.14;99124.60;102988;1284;23224;-56
2022/11/22 07:36:45;;;;;;;59.70;22.30;;;;;;;1.14;97.16;99116.13;103212;1284;25349;-56
2022/11/22 07:39:16;;;;;;;66.90;24.50;;;;;;;1.17;97.29;99112.09;103157;1311;26521;-55
2022/11/22 07:41:49;;;;;;;56.20;20.50;;;;;;;1.21;97.25;99110.09;103286;1282;22494;-55
2022/11/22 07:44:22;;;;;;;60.70;21.70;;;;;;;1.23;97.26;99104.85;103129;1283;22486;-54
2022/11/22 07:46:54;;;;;;;60.80;22.10;;;;;;;1.26;97.36;99114.99;103104;1297;24306;-55
2022/11/22 07:49:25;;;;;;;60.60;22.10;;;;;;;1.29;97.35;99116.95;103153;1282;22496;-57
2022/11/22 07:51:58;;;;;;;83.10;39.30;;;;;;;1.32;97.26;99120.09;103136;1306;22479;-53
2022/11/22 07:54:30;;;;;;;72.50;33.20;;;;;;;1.34;97.31;99121.83;103284;1283;24247;-53
2022/11/22 07:57:01;;;;;;;63.60;27.40;;;;;;;1.35;97.32;99115.52;103010;1284;22603;-56
2022/11/22 07:59:33;;;;;;;71.40;24.60;;;;;;;1.37;97.41;99106.79;103017;1281;22531;-56
2022/11/22 08:02:04;;;;;;;63.60;23.60;;;;;;;1.38;97.41;99105.65;103015;1282;22465;-55
2022/11/22 08:04:36;;;;;;;61.50;21.50;;;;;;;1.40;97.48;99105.45;103128;1294;22463;-54
2022/11/22 08:07:08;;;;;;;75.00;29.00;;;;;;;1.42;97.46;99104.48;103142;1282;25264;-56
2022/11/22 08:09:39;;;;;;;62.40;23.80;;;;;;;1.46;97.46;99100.52;103089;1296;25321;-57
2022/11/22 08:12:11;;;;;;;56.00;21.70;;;;;;;1.47;97.50;99098.72;103350;1282;22476;-55
2022/11/22 08:14:43;;;;;;;58.10;19.90;;;;;;;1.51;97.35;99082.84;103115;1282;22920;-55
2022/11/22 08:17:16;;;;;;;59.70;21.90;;;;;;;1.55;97.48;99078.69;103219;1294;25323;-55
2022/11/22 08:19:52;;;;;;;55.80;20.60;;;;;;;1.59;97.35;99081.29;103097;1305;22475;-57
2022/11/22 08:22:23;;;;;;;51.90;19.50;;;;;;;1.60;97.20;99082.17;103144;1281;22864;-53
2022/11/22 08:24:55;;;;;;;50.40;18.70;;;;;;;1.62;97.21;99080.94;103077;1284;25141;-55
2022/11/22 08:27:28;;;;;;;49.70;17.90;;;;;;;1.62;97.07;99086.27;103190;1288;22483;-55
2022/11/22 08:30:00;;;;;;;50.50;21.70;;;;;;;1.64;97.03;99088.08;103162;1281;22509;-54
2022/11/22 08:32:32;;;;;;;52.50;18.80;;;;;;;1.66;97.00;99092.58;103095;1281;24206;-56
2022/11/22 08:35:04;;;;;;;51.30;20.80;;;;;;;1.66;96.94;99092.65;103009;1288;24418;-55
2022/11/22 08:37:36;;;;;;;48.80;19.00;;;;;;;1.68;96.96;99092.05;103191;1282;25344;-53
2022/11/22 08:40:09;;;;;;;57.90;23.10;;;;;;;1.70;96.99;99092.83;103073;1306;22489;-55
2022/11/22 08:42:41;;;;;;;59.70;23.70;;;;;;;1.71;97.00;99088.08;103037;1296;25295;-56
2022/11/22 08:45:13;;;;;;;74.70;27.50;;;;;;;1.72;97.04;99091.66;103062;1306;22582;-56
2022/11/22 08:47:47;;;;;;;65.40;25.70;;;;;;;1.76;97.09;99101.84;103093;1306;22583;-56
2022/11/22 08:50:19;;;;;;;69.80;28.40;;;;;;;1.78;97.01;99099.85;103142;1283;22732;-57
2022/11/22 08:52:53;;;;;;;73.50;28.10;;;;;;;1.81;97.12;99102.92;103116;1288;22474;-56
2022/11/22 08:55:25;;;;;;;62.60;22.60;;;;;;;1.83;97.14;99106.45;103162;1283;22483;-57
2022/11/22 08:58:00;;;;;;;57.80;23.20;;;;;;;1.85;97.04;99113.86;103183;1278;25359;-57
2022/11/22 09:00:31;;;;;;;57.70;24.20;;;;;;;1.87;97.13;99114.01;103390;1281;22861;-53
2022/11/22 09:03:03;;;;;;;54.50;20.80;;;;;;;1.91;97.10;99114.52;103170;1285;22600;-56
2022/11/22 09:05:35;;;;;;;51.30;19.70;;;;;;;1.91;97.02;99112.69;103098;1281;25331;-52
2022/11/22 09:08:07;;;;;;;51.90;20.00;;;;;;;1.94;96.97;99115.30;103209;1281;26474;-55
2022/11/22 09:10:39;;;;;;;43.90;18.20;;;;;;;1.97;96.93;99118.90;103070;1305;24302;-54
2022/11/22 09:13:11;;;;;;;43.60;16.60;;;;;;;2.01;96.80;99121.83;103031;1282;22454;-55
2022/11/22 09:15:43;;;;;;;50.50;18.60;;;;;;;2.01;96.67;99120.33;103072;1291;25446;-53
2022/11/22 09:18:16;;;;;;;50.00;19.20;;;;;;;2.02;96.67;99120.48;103111;1282;24321;-56
2022/11/22 09:20:49;;;;;;;50.40;19.80;;;;;;;2.02;96.58;99127.23;103069;1281;22501;-55
2022/11/22 09:23:21;;;;;;;52.00;22.00;;;;;;;2.01;96.61;99127.55;103032;1281;22471;-56
2022/11/22 09:25:59;;;;;;;47.90;19.10;;;;;;;2.03;96.68;99127.36;103189;1282;22484;-56
2022/11/22 09:28:31;;;;;;;53.70;21.60;;;;;;;2.02;96.61;99130.20;103003;1282;24589;-55
2022/11/22 09:31:04;;;;;;;47.80;17.30;;;;;;;2.05;96.70;99125.63;103071;1306;24416;-56
2022/11/22 09:33:37;;;;;;;53.20;20.90;;;;;;;2.07;96.72;99121.55;103107;1288;26014;-55
2022/11/22 09:36:12;;;;;;;50.60;20.10;;;;;;;2.11;96.75;99122.02;103085;1282;26044;-56
2022/11/22 09:38:43;;;;;;;45.60;18.90;;;;;;;2.12;96.67;99112.36;103119;1282;22728;-56
2022/11/22 09:41:25;;;;;;;50.70;20.00;;;;;;;2.15;96.71;99109.98;102994;1282;24369;-57
2022/11/22 09:44:10;;;;;;;53.50;20.70;;;;;;;2.19;96.67;99107.30;103050;1275;24265;-56
2022/11/22 09:46:51;;;;;;;52.60;19.70;;;;;;;2.23;96.67;99108.06;102978;1275;22478;-53
2022/11/22 09:49:36;;;;;;;56.40;22.20;;;;;;;2.27;96.54;99107.17;103049;1293;25420;-55
2022/11/22 09:52:10;;;;;;;43.70;17.00;;;;;;;2.31;96.46;99100.13;103060;1284;22631;-56
2022/11/22 09:54:48;;;;;;;46.90;18.40;;;;;;;2.33;96.33;99096.19;103096;1306;22959;-55
2022/11/22 09:57:25;;;;;;;46.00;20.70;;;;;;;2.35;96.30;99094.42;103089;1282;22485;-55
2022/11/22 10:00:05;;;;;;;50.10;18.90;;;;;;;2.40;96.22;99101.73;103175;1283;238870;-57
2022/11/22 10:02:42;;;;;;;46.20;19.20;;;;;;;2.40;96.04;99106.52;103250;1282;23368;-54
2022/11/22 10:05:20;;;;;;;44.30;17.90;;;;;;;2.43;95.96;99109.48;103050;1281;22596;-55
2022/11/22 10:07:59;;;;;;;48.30;19.90;;;;;;;2.43;95.99;99111.67;103130;1281;22706;-55
2022/11/22 10:10:38;;;;;;;45.80;20.60;;;;;;;2.45;95.91;99103.52;102999;1282;25067;-53
2022/11/22 10:13:17;;;;;;;57.00;24.00;;;;;;;2.49;96.11;99101.41;103035;1306;25480;-55
2022/11/22 10:15:55;;;;;;;47.10;19.80;;;;;;;2.54;96.17;99093.90;103077;1306;22531;-55
2022/11/22 10:18:38;;;;;;;53.10;20.40;;;;;;;2.58;96.15;99092.79;103188;1282;23891;-54
2022/11/22 10:21:13;;;;;;;43.40;18.30;;;;;;;2.62;95.95;99088.06;103051;1282;22512;-57
2022/11/22 10:23:47;;;;;;;47.80;19.30;;;;;;;2.64;95.88;99094.35;102988;1282;22479;-55
2022/11/22 10:26:25;;;;;;;48.00;21.40;;;;;;;2.67;95.76;99096.50;103236;1281;22527;-56
2022/11/22 10:29:13;;;;;;;44.70;17.50;;;;;;;2.70;95.72;99097.98;103090;1283;22491;-56
2022/11/22 10:31:54;;;;;;;46.20;18.20;;;;;;;2.73;95.55;99101.73;103141;1281;25332;-56
2022/11/22 10:34:39;;;;;;;41.50;19.70;;;;;;;2.75;95.56;99095.48;103022;1289;22654;-56
2022/11/22 10:37:22;;;;;;;47.10;19.20;;;;;;;2.77;95.41;99093.54;103095;1306;22704;-56
2022/11/22 10:40:08;;;;;;;44.20;19.10;;;;;;;2.78;95.36;99088.36;103090;1305;25284;-53
2022/11/22 10:43:15;;;;;;;43.60;18.90;;;;;;;2.79;95.39;99096.18;103214;1306;25252;-53
2022/11/22 10:45:51;;;;;;;46.60;19.40;;;;;;;2.82;95.25;99096.95;103127;1277;23317;-56
2022/11/22 10:48:28;;;;;;;46.50;20.30;;;;;;;2.83;95.26;99091.48;103141;1274;22502;-56
2022/11/22 10:51:11;;;;;;;47.90;20.90;;;;;;;2.84;95.22;99089.77;103116;1297;22497;-57
2022/11/22 10:53:55;;;;;;;52.10;20.90;;;;;;;2.86;95.21;99091.34;102980;1274;25297;-54
2022/11/22 10:56:30;;;;;;;47.90;20.00;;;;;;;2.88;95.19;99093.02;103035;1290;25343;-56
2022/11/22 10:59:17;;;;;;;45.90;20.60;;;;;;;2.89;95.07;99086.58;103002;1306;24284;-56
2022/11/22 11:01:58;;;;;;;49.60;21.20;;;;;;;2.89;94.97;99084.70;103099;1282;22525;-56
2022/11/22 11:04:31;;;;;;;;;;;;;;;2.91;95.07;99086.05;102949;1304;22448;-55
2022/11/22 11:07:06;;;;;;;42.90;19.10;;;;;;;2.92;95.11;99081.80;103114;1282;22632;-56
2022/11/22 11:09:43;;;;;;;36.10;14.70;;;;;;;2.96;95.20;99081.66;102945;1306;24348;-55
2022/11/22 11:12:19;;;;;;;44.30;19.10;;;;;;;2.96;94.90;99085.33;102922;1305;22549;-54
2022/11/22 11:14:57;;;;;;;45.80;20.50;;;;;;;2.97;94.95;99090.52;103172;1281;22721;-56
2022/11/22 11:17:33;;;;;;;47.50;21.60;;;;;;;2.98;94.84;99091.65;102950;1294;22471;-54
2022/11/22 11:20:13;;;;;;;45.30;20.00;;;;;;;2.99;94.77;99090.89;102988;1282;25382;-56
2022/11/22 11:22:45;;;;;;;44.60;17.20;;;;;;;3.03;94.91;99088.29;102984;1282;25257;-57
2022/11/22 11:25:39;;;;;;;47.50;20.40;;;;;;;3.05;94.83;99083.95;102997;1281;22481;-54
2022/11/22 11:28:17;;;;;;;46.70;20.00;;;;;;;3.09;94.75;99081.58;102973;1282;22474;-55
2022/11/22 11:30:52;;;;;;;46.80;21.80;;;;;;;3.14;94.89;99083.45;102983;1305;24424;-53
2022/11/22 11:33:31;;;;;;;52.20;20.30;;;;;;;3.18;94.79;99083.02;103181;1282;22606;-57
2022/11/22 11:36:10;;;;;;;55.10;23.50;;;;;;;3.22;94.68;99082.05;103063;1306;24348;-55
2022/11/22 11:38:53;;;;;;;56.20;22.70;;;;;;;3.27;94.55;99083.52;103108;1282;25171;-55
2022/11/22 11:41:29;;;;;;;56.50;23.30;;;;;;;3.33;94.58;99079.50;103045;1282;22463;-54
2022/11/22 11:44:02;;;;;;;57.70;24.90;;;;;;;3.38;94.55;99084.00;103126;1282;22482;-53
2022/11/22 11:46:47;;;;;;;61.00;24.50;;;;;;;3.44;94.38;99090.85;103088;1282;23070;-54
2022/11/22 11:49:23;;;;;;;59.20;25.10;;;;;;;3.47;94.32;99089.38;103115;1282;22553;-57
2022/11/22 11:51:59;;;;;;;51.60;21.70;;;;;;;3.50;94.32;99086.34;103001;1306;22468;-57
2022/11/22 11:54:41;;;;;;;50.20;23.00;;;;;;;3.52;94.32;99083.33;103331;1282;25419;-56
2022/11/22 11:57:15;;;;;;;46.60;20.00;;;;;;;3.55;94.32;99078.08;103073;1282;22475;-56
2022/11/22 11:59:49;;;;;;;49.90;22.20;;;;;;;3.58;94.19;99075.13;103096;1275;25203;-57